createdAt,value
2018-06-16T00:01:25.459Z,101771.06
2018-06-16T00:03:53.809Z,101766.34
2018-06-16T00:06:22.061Z,101765.02
2018-06-16T00:08:50.358Z,101768.97
2018-06-16T00:11:18.605Z,101766.84
2018-06-16T00:13:46.943Z,101764.59
2018-06-16T00:16:15.188Z,101763.61
2018-06-16T00:18:43.467Z,101771.45
2018-06-16T00:21:11.697Z,101763.58
2018-06-16T00:23:40.429Z,101761.54
2018-06-16T00:26:08.662Z,101760.86
2018-06-16T00:28:36.908Z,101760.35
2018-06-16T00:31:05.184Z,101751.05
2018-06-16T00:33:33.461Z,101753.16
2018-06-16T00:36:01.749Z,101741.55
2018-06-16T00:38:29.993Z,101745.30
2018-06-16T00:40:58.260Z,101738.91
2018-06-16T00:43:26.701Z,101738.69
2018-06-16T00:45:54.968Z,101743.88
2018-06-16T00:48:23.222Z,101748.06
2018-06-16T00:50:51.499Z,101749.13
2018-06-16T00:53:19.729Z,101740.73
2018-06-16T00:55:48.018Z,101741.45
2018-06-16T00:58:16.264Z,101743.54
2018-06-16T01:00:44.539Z,101745.80
2018-06-16T01:03:13.429Z,101750.81
2018-06-16T01:05:41.689Z,101751.19
2018-06-16T01:08:09.940Z,101750.41
2018-06-16T01:10:38.217Z,101750.00
2018-06-16T01:13:06.469Z,101745.50
2018-06-16T01:15:34.709Z,101753.19
2018-06-16T01:18:02.969Z,101750.49
2018-06-16T01:20:31.245Z,101753.14
2018-06-16T01:22:59.510Z,101753.05
2018-06-16T01:25:27.773Z,101752.65
2018-06-16T01:27:56.065Z,101753.13
2018-06-16T01:30:24.305Z,101754.67
2018-06-16T01:32:52.593Z,101748.70
2018-06-16T01:35:20.836Z,101753.91
2018-06-16T01:37:49.093Z,101757.38
2018-06-16T01:40:17.339Z,101761.51
2018-06-16T01:42:45.607Z,101769.38
2018-06-16T01:45:13.841Z,101768.70
2018-06-16T01:47:42.112Z,101774.98
2018-06-16T01:50:10.361Z,101765.85
2018-06-16T01:52:38.633Z,101775.39
2018-06-16T01:55:06.869Z,101779.19
2018-06-16T01:57:35.122Z,101788.34
2018-06-16T02:00:03.392Z,101781.17
2018-06-16T02:02:31.633Z,101776.67
2018-06-16T02:04:59.905Z,101775.38
2018-06-16T02:07:28.146Z,101773.95
2018-06-16T02:09:56.413Z,101772.78
2018-06-16T02:12:24.741Z,101777.25
2018-06-16T02:14:53.030Z,101771.55
2018-06-16T02:17:21.282Z,101770.97
2018-06-16T02:19:49.544Z,101772.25
2018-06-16T02:22:17.777Z,101774.29
2018-06-16T02:24:46.038Z,101769.21
2018-06-16T02:27:14.277Z,101771.64
2018-06-16T02:29:42.605Z,101769.30
2018-06-16T02:32:10.852Z,101763.33
2018-06-16T02:34:39.150Z,101762.42
2018-06-16T02:37:07.414Z,101755.70
2018-06-16T02:39:35.703Z,101753.98
2018-06-16T02:42:03.937Z,101749.42
2018-06-16T02:44:32.215Z,101746.97
2018-06-16T02:47:00.457Z,101751.46
2018-06-16T02:49:28.697Z,101743.11
2018-06-16T02:51:56.963Z,101754.14
2018-06-16T02:54:25.207Z,101740.36
2018-06-16T02:56:53.480Z,101748.00
2018-06-16T02:59:21.732Z,101744.67
2018-06-16T03:01:50.017Z,101744.98
2018-06-16T03:04:18.273Z,101745.70
2018-06-16T03:06:46.548Z,101734.44
2018-06-16T03:09:14.801Z,101735.50
2018-06-16T03:11:43.082Z,101741.47
2018-06-16T03:14:11.372Z,101734.17
2018-06-16T03:16:39.676Z,101731.45
2018-06-16T03:19:07.925Z,101733.23
2018-06-16T03:21:36.205Z,101737.88
2018-06-16T03:24:04.464Z,101735.88
2018-06-16T03:26:32.733Z,101727.36
2018-06-16T03:29:00.982Z,101724.27
2018-06-16T03:31:29.265Z,101723.80
2018-06-16T03:33:57.541Z,101729.67
2018-06-16T03:36:25.895Z,101727.91
2018-06-16T03:38:54.141Z,101725.70
2018-06-16T03:41:22.421Z,101722.85
2018-06-16T03:43:50.785Z,101725.84
2018-06-16T03:46:19.041Z,101725.11
2018-06-16T03:48:47.366Z,101717.91
2018-06-16T03:51:15.597Z,101725.45
2018-06-16T03:53:43.887Z,101724.77
2018-06-16T03:56:12.137Z,101717.59
2018-06-16T03:58:40.433Z,101710.08
2018-06-16T04:01:08.696Z,101708.99
2018-06-16T04:03:36.968Z,101708.50
2018-06-16T04:06:05.357Z,101711.03
2018-06-16T04:08:33.646Z,101714.20
2018-06-16T04:11:02.006Z,101708.67
2018-06-16T04:13:30.301Z,101705.52
2018-06-16T04:15:58.559Z,101707.68
2018-06-16T04:18:26.829Z,101703.27
2018-06-16T04:20:55.077Z,101700.39
2018-06-16T04:23:23.363Z,101698.55
2018-06-16T04:25:51.716Z,101698.97
2018-06-16T04:28:19.960Z,101692.89
2018-06-16T04:30:48.220Z,101693.09
2018-06-16T04:33:16.538Z,101689.28
2018-06-16T04:35:44.782Z,101681.31
2018-06-16T04:38:13.041Z,101685.62
2018-06-16T04:40:41.317Z,101681.44
2018-06-16T04:43:09.560Z,101683.56
2018-06-16T04:45:37.919Z,101676.66
2018-06-16T04:48:06.257Z,101679.31
2018-06-16T04:50:34.653Z,101676.77
2018-06-16T04:53:02.906Z,101676.60
2018-06-16T04:55:31.210Z,101674.70
2018-06-16T04:57:59.485Z,101663.47
2018-06-16T05:00:27.766Z,101665.55
2018-06-16T05:02:56.024Z,101664.30
2018-06-16T05:05:24.322Z,101670.74
2018-06-16T05:07:52.581Z,101664.86
2018-06-16T05:10:20.848Z,101663.71
2018-06-16T05:12:49.120Z,101660.23
2018-06-16T05:15:17.421Z,101660.66
2018-06-16T05:17:45.720Z,101653.22
2018-06-16T05:20:13.982Z,101667.30
2018-06-16T05:22:42.349Z,101657.22
2018-06-16T05:25:10.725Z,101652.28
2018-06-16T05:27:39.140Z,101644.69
2018-06-16T05:30:07.405Z,101644.69
2018-06-16T05:32:35.890Z,101643.41
2018-06-16T05:35:04.169Z,101641.73
2018-06-16T05:37:32.469Z,101643.30
2018-06-16T05:40:00.728Z,101637.28
2018-06-16T05:42:29.183Z,101636.56
2018-06-16T05:44:58.433Z,101640.47
2018-06-16T05:47:26.761Z,101639.80
2018-06-16T05:49:55.049Z,101638.34
2018-06-16T05:52:23.333Z,101636.33
2018-06-16T05:54:51.593Z,101639.70
2018-06-16T05:57:19.893Z,101642.81
2018-06-16T05:59:48.149Z,101640.66
2018-06-16T06:02:16.471Z,101637.89
2018-06-16T06:04:44.788Z,101640.48
2018-06-16T06:07:13.280Z,101640.00
2018-06-16T06:09:41.577Z,101643.64
2018-06-16T06:12:09.901Z,101643.31
2018-06-16T06:14:38.189Z,101647.58
2018-06-16T06:17:06.440Z,101645.31
2018-06-16T06:19:34.741Z,101646.78
2018-06-16T06:22:03.057Z,101636.28
2018-06-16T06:24:31.648Z,101628.64
2018-06-16T06:26:59.973Z,101636.39
2018-06-16T06:29:28.245Z,101627.31
2018-06-16T06:31:56.519Z,101628.73
2018-06-16T06:34:24.824Z,101629.42
2018-06-16T06:36:53.077Z,101624.55
2018-06-16T06:39:21.357Z,101627.45
2018-06-16T06:41:49.604Z,101626.64
2018-06-16T06:44:17.897Z,101620.41
2018-06-16T06:46:46.157Z,101618.25
2018-06-16T06:49:14.485Z,101612.10
2018-06-16T06:51:42.878Z,101614.39
2018-06-16T06:54:11.109Z,101616.87
2018-06-16T06:56:39.401Z,101613.70
2018-06-16T06:59:07.653Z,101617.97
2018-06-16T07:01:35.953Z,101614.01
2018-06-16T07:04:04.307Z,101613.06
2018-06-16T07:06:32.596Z,101614.77
2018-06-16T07:09:00.868Z,101602.88
2018-06-16T07:11:29.152Z,101614.00
2018-06-16T07:13:57.433Z,101607.19
2018-06-16T07:16:25.796Z,101602.47
2018-06-16T07:18:54.045Z,101604.34
2018-06-16T07:21:22.337Z,101605.27
2018-06-16T07:23:50.598Z,101602.86
2018-06-16T07:26:18.880Z,101598.58
2018-06-16T07:28:47.140Z,101595.41
2018-06-16T07:31:15.435Z,101590.77
2018-06-16T07:33:43.850Z,101592.24
2018-06-16T07:36:12.178Z,101589.79
2018-06-16T07:38:40.474Z,101580.20
2018-06-16T07:41:08.778Z,101575.97
2018-06-16T07:43:37.385Z,101582.23
2018-06-16T07:46:05.957Z,101583.59
2018-06-16T07:48:34.341Z,101581.20
2018-06-16T07:51:02.641Z,101577.27
2018-06-16T07:53:30.923Z,101581.73
2018-06-16T07:55:59.173Z,101575.67
2018-06-16T07:58:27.457Z,101575.53
2018-06-16T08:00:55.709Z,101578.52
2018-06-16T08:03:23.989Z,101578.27
2018-06-16T08:05:52.242Z,101577.03
2018-06-16T08:08:20.537Z,101565.48
2018-06-16T08:10:48.794Z,101559.52
2018-06-16T08:13:17.065Z,101566.49
2018-06-16T08:15:45.326Z,101565.82
2018-06-16T08:18:13.630Z,101556.25
2018-06-16T08:20:41.881Z,101558.42
2018-06-16T08:23:10.201Z,101557.43
2018-06-16T08:25:38.459Z,101557.73
2018-06-16T08:28:06.700Z,101553.80
2018-06-16T08:30:35.017Z,101560.40
2018-06-16T08:33:03.334Z,101553.36
2018-06-16T08:35:31.613Z,101551.46
2018-06-16T08:37:59.921Z,101555.98
2018-06-16T08:40:28.209Z,101555.19
2018-06-16T08:42:56.473Z,101547.56
2018-06-16T08:45:24.772Z,101549.16
2018-06-16T08:47:53.020Z,101547.38
2018-06-16T08:50:21.313Z,101545.91
2018-06-16T08:52:49.686Z,101543.66
2018-06-16T08:55:18.236Z,101550.80
2018-06-16T08:57:46.556Z,101543.02
2018-06-16T09:00:14.845Z,101541.05
2018-06-16T09:02:43.098Z,101544.14
2018-06-16T09:05:11.417Z,101536.84
2018-06-16T09:07:39.677Z,101538.30
2018-06-16T09:10:07.977Z,101537.91
2018-06-16T09:12:36.293Z,101540.38
2018-06-16T09:15:04.669Z,101537.84
2018-06-16T09:17:32.983Z,101533.56
2018-06-16T09:20:01.251Z,101535.63
2018-06-16T09:22:29.559Z,101529.94
2018-06-16T09:24:58.034Z,101521.98
2018-06-16T09:27:26.358Z,101522.59
2018-06-16T09:29:54.633Z,101530.94
2018-06-16T09:32:22.915Z,101529.64
2018-06-16T09:34:51.194Z,101522.41
2018-06-16T09:37:19.474Z,101521.75
2018-06-16T09:39:47.738Z,101525.72
2018-06-16T09:42:16.021Z,101521.58
2018-06-16T09:44:44.290Z,101524.20
2018-06-16T09:47:12.578Z,101509.81
2018-06-16T09:49:40.845Z,101509.38
2018-06-16T09:52:09.133Z,101513.11
2018-06-16T09:54:37.400Z,101501.47
2018-06-16T09:57:05.704Z,101504.32
2018-06-16T09:59:33.957Z,101499.56
2018-06-16T10:02:02.218Z,101497.63
2018-06-16T10:04:30.538Z,101498.85
2018-06-16T10:06:58.889Z,101499.91
2018-06-16T10:10:30.136Z,101496.35
2018-06-16T10:12:58.429Z,101495.67
2018-06-16T10:15:26.697Z,101501.67
2018-06-16T10:17:54.957Z,101492.55
2018-06-16T10:20:23.336Z,101490.98
2018-06-16T10:22:51.689Z,101480.77
2018-06-16T10:25:20.007Z,101474.12
2018-06-16T10:27:48.382Z,101472.94
2018-06-16T10:30:16.665Z,101464.33
2018-06-16T10:32:45.030Z,101458.89
2018-06-16T10:35:13.329Z,101453.25
2018-06-16T10:37:41.598Z,101457.35
2018-06-16T10:40:09.941Z,101446.88
2018-06-16T10:42:38.396Z,101438.75
2018-06-16T10:45:06.729Z,101439.00
2018-06-16T10:47:35.115Z,101434.06
2018-06-16T10:50:03.482Z,101442.91
2018-06-16T10:52:31.745Z,101426.05
2018-06-16T10:55:00.070Z,101431.59
2018-06-16T10:57:28.364Z,101424.71
2018-06-16T10:59:56.933Z,101426.05
2018-06-16T11:02:25.206Z,101421.31
2018-06-16T11:04:53.539Z,101415.92
2018-06-16T11:07:21.841Z,101418.23
2018-06-16T11:09:50.098Z,101422.02
2018-06-16T11:12:18.514Z,101431.25
2018-06-16T11:14:46.797Z,101442.38
2018-06-16T11:17:15.230Z,101440.59
2018-06-16T11:19:43.537Z,101431.91
2018-06-16T11:22:11.834Z,101434.28
2018-06-16T11:24:40.122Z,101433.52
2018-06-16T11:27:08.421Z,101440.48
2018-06-16T11:29:36.699Z,101440.58
2018-06-16T11:32:05.241Z,101449.91
2018-06-16T11:34:33.542Z,101441.73
2018-06-16T11:37:01.823Z,101443.90
2018-06-16T11:39:30.116Z,101427.30
2018-06-16T11:41:58.393Z,101423.83
2018-06-16T11:44:26.853Z,101418.39
2018-06-16T11:46:55.141Z,101416.50
2018-06-16T11:49:23.716Z,101409.63
2018-06-16T11:51:52.022Z,101415.88
2018-06-16T11:54:20.341Z,101404.73
2018-06-16T11:56:48.617Z,101400.67
2018-06-16T11:59:17.126Z,101406.05
2018-06-16T12:01:45.477Z,101404.14
2018-06-16T12:04:13.777Z,101399.64
2018-06-16T12:06:42.061Z,101397.50
2018-06-16T12:09:12.177Z,101389.02
2018-06-16T12:11:40.481Z,101399.64
2018-06-16T12:14:09.537Z,101388.42
2018-06-16T12:16:38.101Z,101396.34
2018-06-16T12:19:06.705Z,101393.79
2018-06-16T12:21:35.030Z,101385.38
2018-06-16T12:24:03.359Z,101385.78
2018-06-16T12:26:31.706Z,101380.93
2018-06-16T12:29:00.105Z,101373.78
2018-06-16T12:31:28.370Z,101369.01
2018-06-16T12:33:56.786Z,101365.42
2018-06-16T12:36:25.074Z,101366.42
2018-06-16T12:38:53.340Z,101367.47
2018-06-16T12:41:21.797Z,101370.52
2018-06-16T12:43:50.357Z,101370.22
2018-06-16T12:46:18.669Z,101374.75
2018-06-16T12:48:46.993Z,101369.19
2018-06-16T12:51:15.310Z,101359.80
2018-06-16T12:53:43.574Z,101354.56
2018-06-16T12:56:11.979Z,101358.16
2018-06-16T12:58:40.278Z,101361.45
2018-06-16T13:01:08.594Z,101364.09
2018-06-16T13:03:36.864Z,101364.29
2018-06-16T13:06:05.153Z,101358.38
2018-06-16T13:08:33.428Z,101354.06
2018-06-16T13:11:01.681Z,101358.13
2018-06-16T13:13:30.200Z,101354.27
2018-06-16T13:15:58.469Z,101358.36
2018-06-16T13:18:26.821Z,101362.92
2018-06-16T13:20:55.071Z,101361.70
2018-06-16T13:23:23.356Z,101359.11
2018-06-16T13:25:51.612Z,101357.09
2018-06-16T13:28:19.925Z,101358.54
2018-06-16T13:30:48.186Z,101366.55
2018-06-16T13:33:16.469Z,101367.78
2018-06-16T13:35:44.785Z,101382.34
2018-06-16T13:38:13.081Z,101379.07
2018-06-16T13:40:41.333Z,101383.59
2018-06-16T13:43:09.605Z,101371.23
2018-06-16T13:45:37.866Z,101378.14
2018-06-16T13:48:06.206Z,101377.75
2018-06-16T13:50:34.609Z,101372.35
2018-06-16T13:53:02.861Z,101366.92
2018-06-16T13:55:31.191Z,101362.89
2018-06-16T13:57:59.485Z,101364.34
2018-06-16T14:00:27.756Z,101355.08
2018-06-16T14:02:56.007Z,101358.87
2018-06-16T14:05:24.301Z,101358.77
2018-06-16T14:07:52.595Z,101352.70
2018-06-16T14:10:20.968Z,101355.08
2018-06-16T14:12:49.409Z,101343.47
2018-06-16T14:15:17.686Z,101341.64
2018-06-16T14:17:45.950Z,101334.19
2018-06-16T14:20:14.233Z,101331.50
2018-06-16T14:22:42.579Z,101328.14
2018-06-16T14:25:10.862Z,101325.93
2018-06-16T14:27:39.115Z,101316.09
2018-06-16T14:30:07.541Z,101308.20
2018-06-16T14:32:35.898Z,101303.58
2018-06-16T14:35:04.281Z,101311.44
2018-06-16T14:37:32.732Z,101298.49
2018-06-16T14:40:01.009Z,101296.03
2018-06-16T14:42:29.298Z,101296.55
2018-06-16T14:44:57.568Z,101298.49
2018-06-16T14:47:25.891Z,101301.56
2018-06-16T14:49:54.221Z,101293.89
2018-06-16T14:52:22.521Z,101290.61
2018-06-16T14:54:50.765Z,101289.66
2018-06-16T14:57:19.053Z,101283.33
2018-06-16T14:59:47.309Z,101284.86
2018-06-16T15:02:15.774Z,101275.80
2018-06-16T15:04:44.096Z,101282.97
2018-06-16T15:07:12.305Z,101278.03
2018-06-16T15:09:40.557Z,101273.69
2018-06-16T15:12:08.838Z,101270.58
2018-06-16T15:14:37.101Z,101272.21
2018-06-16T15:17:05.384Z,101265.37
2018-06-16T15:19:33.790Z,101272.53
2018-06-16T15:22:02.342Z,101275.37
2018-06-16T15:24:30.600Z,101272.33
2018-06-16T15:26:58.856Z,101266.41
2018-06-16T15:29:27.173Z,101268.94
2018-06-16T15:31:55.430Z,101273.27
2018-06-16T15:34:23.741Z,101269.62
2018-06-16T15:36:52.013Z,101267.52
2018-06-16T15:39:20.301Z,101255.98
2018-06-16T15:41:48.561Z,101260.55
2018-06-16T15:44:16.941Z,101280.13
2018-06-16T15:46:45.257Z,101284.25
2018-06-16T15:49:13.501Z,101296.09
2018-06-16T15:51:42.611Z,101325.80
2018-06-16T15:54:10.958Z,101339.52
2018-06-16T15:56:39.213Z,101361.14
2018-06-16T15:59:07.509Z,101359.02
2018-06-16T16:01:35.770Z,101356.31
2018-06-16T16:04:04.097Z,101341.00
2018-06-16T16:06:32.442Z,101331.78
2018-06-16T16:09:00.738Z,101324.45
2018-06-16T16:11:29.020Z,101325.46
2018-06-16T16:13:57.353Z,101321.53
2018-06-16T16:16:25.668Z,101309.73
2018-06-16T16:18:54.001Z,101309.97
2018-06-16T16:21:22.305Z,101303.83
2018-06-16T16:23:50.573Z,101299.14
2018-06-16T16:26:18.853Z,101293.51
2018-06-16T16:28:47.108Z,101291.80
2018-06-16T16:31:15.388Z,101285.43
2018-06-16T16:33:43.768Z,101283.89
2018-06-16T16:36:12.081Z,101280.38
2018-06-16T16:38:40.421Z,101276.19
2018-06-16T16:41:08.708Z,101270.46
2018-06-16T16:43:36.961Z,101276.72
2018-06-16T16:46:05.260Z,101271.78
2018-06-16T16:48:33.520Z,101268.55
2018-06-16T16:51:01.804Z,101266.71
2018-06-16T16:53:30.057Z,101264.41
2018-06-16T16:55:58.374Z,101261.75
2018-06-16T16:58:26.724Z,101259.98
2018-06-16T17:00:55.033Z,101257.41
2018-06-16T17:03:23.321Z,101258.97
2018-06-16T17:05:51.652Z,101263.31
2018-06-16T17:08:19.934Z,101264.99
2018-06-16T17:10:48.189Z,101272.33
2018-06-16T17:13:16.460Z,101268.70
2018-06-16T17:15:44.723Z,101278.19
2018-06-16T17:18:13.010Z,101281.25
2018-06-16T17:20:41.315Z,101285.44
2018-06-16T17:23:09.590Z,101289.84
2018-06-16T17:25:37.869Z,101291.95
2018-06-16T17:28:06.177Z,101304.53
2018-06-16T17:30:34.433Z,101296.02
2018-06-16T17:33:02.709Z,101308.10
2018-06-16T17:35:30.993Z,101305.45
2018-06-16T17:37:59.301Z,101302.86
2018-06-16T17:40:27.589Z,101309.23
2018-06-16T17:42:55.877Z,101313.36
2018-06-16T17:45:24.129Z,101314.83
2018-06-16T17:47:52.400Z,101324.23
2018-06-16T17:50:20.709Z,101324.61
2018-06-16T17:52:49.003Z,101327.52
2018-06-16T17:55:17.289Z,101332.78
2018-06-16T17:57:45.801Z,101331.25
2018-06-16T18:00:14.168Z,101337.30
2018-06-16T18:02:42.441Z,101338.41
2018-06-16T18:05:10.725Z,101330.88
2018-06-16T18:07:38.994Z,101335.64
2018-06-16T18:10:07.417Z,101333.04
2018-06-16T18:12:35.669Z,101333.04
2018-06-16T18:15:04.006Z,101327.84
2018-06-16T18:17:32.257Z,101331.97
2018-06-16T18:20:00.586Z,101328.72
2018-06-16T18:22:28.835Z,101336.58
2018-06-16T18:24:57.137Z,101329.06
2018-06-16T18:27:25.389Z,101331.38
2018-06-16T18:29:53.682Z,101336.36
2018-06-16T18:32:21.929Z,101341.72
2018-06-16T18:34:50.244Z,101338.64
2018-06-16T18:37:18.513Z,101339.91
2018-06-16T18:39:46.905Z,101341.37
2018-06-16T18:42:15.157Z,101342.77
2018-06-16T18:44:43.417Z,101350.66
2018-06-16T18:47:11.725Z,101345.34
2018-06-16T18:49:40.083Z,101345.27
2018-06-16T18:52:08.388Z,101345.84
2018-06-16T18:54:36.642Z,101355.58
2018-06-16T18:57:05.022Z,101353.36
2018-06-16T18:59:33.297Z,101350.88
2018-06-16T19:02:01.585Z,101349.42
2018-06-16T19:04:29.844Z,101346.02
2018-06-16T19:06:58.129Z,101350.05
2018-06-16T19:09:26.381Z,101355.02
2018-06-16T19:11:54.673Z,101351.14
2018-06-16T19:14:22.925Z,101359.39
2018-06-16T19:16:51.206Z,101362.70
2018-06-16T19:19:19.453Z,101361.94
2018-06-16T19:21:47.733Z,101367.27
2018-06-16T19:24:15.989Z,101365.95
2018-06-16T19:26:44.285Z,101371.66
2018-06-16T19:29:12.712Z,101377.55
2018-06-16T19:31:41.021Z,101378.01
2018-06-16T19:34:09.617Z,101379.64
2018-06-16T19:36:37.925Z,101383.64
2018-06-16T19:39:09.333Z,101383.02
2018-06-16T19:41:38.011Z,101382.45
2018-06-16T19:44:06.501Z,101380.46
2018-06-16T19:46:34.853Z,101386.71
2018-06-16T19:49:03.257Z,101386.25
2018-06-16T19:51:31.526Z,101390.98
2018-06-16T19:53:59.801Z,101391.17
2018-06-16T19:56:28.065Z,101386.30
2018-06-16T19:58:56.773Z,101395.66
2018-06-16T20:01:25.225Z,101395.63
2018-06-16T20:03:53.504Z,101391.36
2018-06-16T20:06:21.841Z,101390.75
2018-06-16T20:08:50.134Z,101392.41
2018-06-16T20:11:18.745Z,101390.61
2018-06-16T20:13:47.022Z,101383.86
2018-06-16T20:16:15.394Z,101385.91
2018-06-16T20:18:43.645Z,101384.77
2018-06-16T20:21:11.937Z,101386.44
2018-06-16T20:23:40.240Z,101387.77
2018-06-16T20:26:08.837Z,101387.11
2018-06-16T20:28:37.275Z,101385.30
2018-06-16T20:31:05.577Z,101387.33
2018-06-16T20:33:33.842Z,101385.84
2018-06-16T20:36:02.242Z,101387.34
2018-06-16T20:38:30.501Z,101385.39
2018-06-16T20:40:58.955Z,101390.36
2018-06-16T20:43:27.222Z,101387.36
2018-06-16T20:45:55.528Z,101385.06
2018-06-16T20:48:24.001Z,101387.88
2018-06-16T20:50:52.296Z,101386.53
2018-06-16T20:53:20.563Z,101382.70
2018-06-16T20:55:48.921Z,101386.70
2018-06-16T20:58:17.411Z,101388.38
2018-06-16T21:00:45.933Z,101387.84
2018-06-16T21:03:14.192Z,101388.98
2018-06-16T21:05:42.933Z,101391.81
2018-06-16T21:08:11.197Z,101385.66
2018-06-16T21:10:39.473Z,101384.19
2018-06-16T21:13:08.021Z,101380.02
2018-06-16T21:15:36.278Z,101382.02
2018-06-16T21:18:04.617Z,101382.84
2018-06-16T21:20:32.884Z,101384.02
2018-06-16T21:23:01.333Z,101380.05
2018-06-16T21:25:29.597Z,101369.09
2018-06-16T21:27:57.897Z,101369.09
2018-06-16T21:30:26.203Z,101360.30
2018-06-16T21:32:54.493Z,101354.17
2018-06-16T21:35:22.793Z,101352.83
2018-06-16T21:37:51.193Z,101353.50
2018-06-16T21:40:19.494Z,101355.81
2018-06-16T21:42:47.793Z,101347.84
2018-06-16T21:45:16.080Z,101355.81
2018-06-16T21:47:44.374Z,101361.12
2018-06-16T21:50:12.641Z,101351.17
2018-06-16T21:52:40.957Z,101348.84
2018-06-16T21:55:09.213Z,101343.22
2018-06-16T21:57:37.564Z,101338.23
2018-06-16T22:00:09.857Z,101341.20
2018-06-16T22:02:38.228Z,101349.48
2018-06-16T22:05:07.126Z,101350.48
2018-06-16T22:07:35.410Z,101339.57
2018-06-16T22:10:03.813Z,101342.53
2018-06-16T22:12:32.090Z,101341.37
2018-06-16T22:15:00.397Z,101340.21
2018-06-16T22:17:28.663Z,101343.55
2018-06-16T22:19:57.091Z,101339.23
2018-06-16T22:22:25.438Z,101341.70
2018-06-16T22:24:53.750Z,101343.23
2018-06-16T22:27:22.041Z,101332.09
2018-06-16T22:29:50.372Z,101334.09
2018-06-16T22:32:18.641Z,101337.58
2018-06-16T22:34:46.972Z,101332.61
2018-06-16T22:37:15.277Z,101327.97
2018-06-16T22:39:43.573Z,101333.26
2018-06-16T22:42:11.853Z,101336.09
2018-06-16T22:44:40.256Z,101338.25
2018-06-16T22:47:08.569Z,101330.95
2018-06-16T22:49:36.880Z,101329.30
2018-06-16T22:52:05.139Z,101340.59
2018-06-16T22:54:33.430Z,101337.94
2018-06-16T22:57:01.808Z,101336.95
2018-06-16T22:59:30.122Z,101336.62
2018-06-16T23:01:58.404Z,101328.48
2018-06-16T23:04:26.721Z,101332.13
2018-06-16T23:06:55.014Z,101334.43
2018-06-16T23:09:23.285Z,101330.33
2018-06-16T23:11:51.590Z,101330.00
2018-06-16T23:14:19.876Z,101328.31
2018-06-16T23:16:48.187Z,101328.66
2018-06-16T23:19:16.449Z,101330.61
2018-06-16T23:21:44.785Z,101343.42
2018-06-16T23:24:13.041Z,101350.00
2018-06-16T23:26:41.331Z,101358.07
2018-06-16T23:29:09.591Z,101358.36
2018-06-16T23:31:37.876Z,101353.17
2018-06-16T23:34:06.384Z,101358.50
2018-06-16T23:36:34.735Z,101362.01
2018-06-16T23:39:03.181Z,101362.64
2018-06-16T23:41:31.489Z,101357.01
2018-06-16T23:43:59.857Z,101357.44
2018-06-16T23:46:28.125Z,101353.86
2018-06-16T23:48:56.484Z,101356.64
2018-06-16T23:51:24.765Z,101352.61
2018-06-16T23:53:53.089Z,101353.66
2018-06-16T23:56:21.384Z,101355.72
2018-06-16T23:58:49.746Z,101365.08
